Washington, District of Columbia
Traffic Map
Current Weather Conditions
Washington, District of Columbia
Overcast
Overcast

Feels Like: 5°
Wind Chill: Ceiling: 7500
Heat Index: Visibility: 10mi
Dew Point: Wind: 6mph
Humidity: 60% Direction: ° ()
Pressure: 29.58in Gusts: 0mph
Raw Report DataKDCA 121552Z VRB05KT 10SM BKN075 OVC140 07/00 A2958 RMK AO2 SLP018 T00720000
Traffic Incident Summary
Active as of:
Severity:
Category:
InformationThere was an issue retrieving the traffic information for this location. Please try a different location or try again shortly.
Advertisements